createdAt,value
2022-11-05T00:01:37.523Z,6.95
2022-11-05T00:04:58.601Z,7.43
2022-11-05T00:08:23.036Z,7.35
2022-11-05T00:11:45.566Z,7.57
2022-11-05T00:15:06.898Z,7.10
2022-11-05T00:18:09.407Z,6.65
2022-11-05T00:21:33.310Z,6.80
2022-11-05T00:24:54.145Z,7.32
2022-11-05T00:28:02.225Z,7.28
2022-11-05T00:31:10.461Z,7.33
2022-11-05T00:34:13.055Z,7.10
2022-11-05T00:37:15.498Z,7.38
2022-11-05T00:40:18.009Z,6.95
2022-11-05T00:43:39.248Z,7.00
2022-11-05T00:46:41.898Z,6.80
2022-11-05T00:49:44.403Z,6.60
2022-11-05T00:52:57.268Z,7.50
2022-11-05T00:56:00.711Z,6.95
2022-11-05T00:59:03.131Z,7.00
2022-11-05T01:02:06.206Z,6.33
2022-11-05T01:05:09.615Z,6.57
2022-11-05T01:08:13.799Z,7.53
2022-11-05T01:11:34.093Z,6.65
2022-11-05T01:14:36.601Z,6.43
2022-11-05T01:17:39.171Z,6.93
2022-11-05T01:20:42.255Z,6.72
2022-11-05T01:23:44.747Z,6.50
2022-11-05T01:26:47.312Z,6.85
2022-11-05T01:29:49.862Z,6.85
2022-11-05T01:32:52.595Z,6.43
2022-11-05T01:35:55.068Z,6.68
2022-11-05T01:38:57.535Z,7.10
2022-11-05T01:42:00.130Z,6.72
2022-11-05T01:45:12.836Z,6.82
2022-11-05T01:48:19.806Z,6.60
2022-11-05T01:51:26.481Z,6.65
2022-11-05T01:54:31.296Z,6.88
2022-11-05T01:57:34.061Z,6.70
2022-11-05T02:00:36.780Z,6.88
2022-11-05T02:03:40.096Z,6.73
2022-11-05T02:06:46.315Z,6.50
2022-11-05T02:09:55.970Z,6.53
2022-11-05T02:12:58.484Z,7.78
2022-11-05T02:16:05.161Z,6.57
2022-11-05T02:19:34.796Z,6.63
2022-11-05T02:22:55.897Z,7.07
2022-11-05T02:26:14.724Z,6.78
2022-11-05T02:29:54.839Z,6.43
2022-11-05T02:33:03.422Z,6.55
2022-11-05T02:36:15.000Z,6.93
2022-11-05T02:39:50.529Z,6.80
2022-11-05T02:43:07.767Z,6.30
2022-11-05T02:46:37.746Z,6.55
2022-11-05T02:50:17.821Z,6.75
2022-11-05T02:53:33.652Z,6.53
2022-11-05T02:56:41.401Z,7.22
2022-11-05T02:59:44.065Z,6.75
2022-11-05T03:02:46.810Z,6.70
2022-11-05T03:05:54.666Z,6.88
2022-11-05T03:09:19.465Z,6.93
2022-11-05T03:12:40.213Z,6.35
2022-11-05T03:16:02.688Z,6.93
2022-11-05T03:19:17.169Z,6.40
2022-11-05T03:22:54.755Z,6.15
2022-11-05T03:26:25.297Z,6.37
2022-11-05T03:29:37.489Z,6.35
2022-11-05T03:32:48.870Z,7.30
2022-11-05T03:35:55.536Z,6.05
2022-11-05T03:39:04.659Z,6.60
2022-11-05T03:42:11.519Z,6.00
2022-11-05T03:45:21.696Z,6.70
2022-11-05T03:48:27.990Z,6.45
2022-11-05T03:51:41.692Z,6.63
2022-11-05T03:54:45.306Z,6.63
2022-11-05T03:57:51.532Z,5.90
2022-11-05T04:00:54.204Z,6.93
2022-11-05T04:03:56.988Z,6.70
2022-11-05T04:07:17.976Z,6.60
2022-11-05T04:10:39.686Z,6.93
2022-11-05T04:13:42.129Z,6.60
2022-11-05T04:17:03.220Z,6.97
2022-11-05T04:20:24.327Z,6.32
2022-11-05T04:23:47.113Z,6.50
2022-11-05T04:26:49.637Z,6.55
2022-11-05T04:30:10.570Z,6.40
2022-11-05T04:33:16.903Z,6.22
2022-11-05T04:36:19.801Z,6.78
2022-11-05T04:39:22.296Z,6.60
2022-11-05T04:42:24.977Z,6.97
2022-11-05T04:45:30.436Z,6.47
2022-11-05T04:48:33.462Z,6.75
2022-11-05T04:51:36.002Z,7.15
2022-11-05T04:54:38.507Z,7.25
2022-11-05T04:57:41.003Z,6.97
2022-11-05T05:00:43.940Z,7.43
2022-11-05T05:03:50.858Z,7.30
2022-11-05T05:06:53.325Z,7.13
2022-11-05T05:09:55.861Z,7.00
2022-11-05T05:12:58.692Z,6.85
2022-11-05T05:16:09.537Z,6.83
2022-11-05T05:19:12.009Z,7.40
2022-11-05T05:22:14.482Z,7.15
2022-11-05T05:25:17.080Z,6.38
2022-11-05T05:28:19.563Z,7.03
2022-11-05T05:31:23.256Z,6.80
2022-11-05T05:34:25.744Z,7.20
2022-11-05T05:37:28.300Z,7.60
2022-11-05T05:40:30.789Z,7.53
2022-11-05T05:43:34.090Z,7.45
2022-11-05T05:46:36.694Z,7.60
2022-11-05T05:49:39.455Z,8.07
2022-11-05T05:52:41.935Z,7.75
2022-11-05T05:55:44.949Z,6.80
2022-11-05T05:58:47.821Z,7.65
2022-11-05T06:01:50.468Z,6.87
2022-11-05T06:04:53.062Z,7.63
2022-11-05T06:07:57.223Z,7.32
2022-11-05T06:11:02.339Z,7.45
2022-11-05T06:14:04.823Z,7.50
2022-11-05T06:17:10.219Z,7.20
2022-11-05T06:20:13.240Z,6.53
2022-11-05T06:23:16.744Z,7.63
2022-11-05T06:26:19.567Z,6.88
2022-11-05T06:29:22.167Z,7.30
2022-11-05T06:32:24.781Z,7.10
2022-11-05T06:35:27.271Z,7.38
2022-11-05T06:38:33.400Z,7.05
2022-11-05T06:41:56.960Z,7.20
2022-11-05T06:44:58.437Z,7.38
2022-11-05T06:48:01.034Z,7.13
2022-11-05T06:51:04.759Z,6.88
2022-11-05T06:54:08.932Z,7.10
2022-11-05T06:57:12.310Z,6.88
2022-11-05T07:00:15.272Z,6.80
2022-11-05T07:03:18.327Z,7.50
2022-11-05T07:06:20.894Z,7.57
2022-11-05T07:09:23.644Z,7.28
2022-11-05T07:12:26.065Z,7.05
2022-11-05T07:15:28.664Z,7.00
2022-11-05T07:18:31.360Z,6.47
2022-11-05T07:21:33.881Z,7.05
2022-11-05T07:24:36.467Z,7.30
2022-11-05T07:27:40.212Z,6.45
2022-11-05T07:30:42.748Z,7.18
2022-11-05T07:33:45.280Z,6.60
2022-11-05T07:36:47.800Z,7.50
2022-11-05T07:39:50.254Z,7.40
2022-11-05T07:42:55.777Z,7.72
2022-11-05T07:45:58.298Z,6.88
2022-11-05T07:49:00.894Z,6.40
2022-11-05T07:52:03.623Z,6.53
2022-11-05T07:55:06.706Z,7.10
2022-11-05T07:58:10.508Z,7.13
2022-11-05T08:01:13.107Z,6.38
2022-11-05T08:04:15.660Z,7.00
2022-11-05T08:07:18.230Z,7.07
2022-11-05T08:10:25.421Z,7.10
2022-11-05T08:13:28.028Z,6.60
2022-11-05T08:16:30.893Z,7.32
2022-11-05T08:19:33.414Z,6.90
2022-11-05T08:22:35.971Z,6.82
2022-11-05T08:25:39.895Z,6.88
2022-11-05T08:28:42.405Z,6.70
2022-11-05T08:31:44.919Z,6.90
2022-11-05T08:34:47.389Z,6.97
2022-11-05T08:37:49.962Z,7.00
2022-11-05T08:40:57.689Z,6.93
2022-11-05T08:44:00.160Z,7.30
2022-11-05T08:47:02.617Z,6.63
2022-11-05T08:50:05.471Z,7.10
2022-11-05T08:53:10.468Z,6.80
2022-11-05T08:56:13.562Z,7.00
2022-11-05T08:59:16.028Z,6.35
2022-11-05T09:02:18.792Z,7.07
2022-11-05T09:05:21.387Z,7.20
2022-11-05T09:08:24.263Z,6.85
2022-11-05T09:11:49.659Z,6.45
2022-11-05T09:14:49.447Z,6.43
2022-11-05T09:17:52.112Z,6.72
2022-11-05T09:20:54.599Z,6.37
2022-11-05T09:23:57.251Z,6.35
2022-11-05T09:26:59.777Z,6.53
2022-11-05T09:30:02.674Z,6.88
2022-11-05T09:33:05.125Z,6.75
2022-11-05T09:36:08.693Z,6.20
2022-11-05T09:39:11.186Z,6.45
2022-11-05T09:42:17.733Z,6.95
2022-11-05T09:45:24.762Z,6.70
2022-11-05T09:48:31.131Z,6.68
2022-11-05T09:51:36.069Z,6.10
2022-11-05T09:54:38.485Z,6.15
2022-11-05T09:58:15.494Z,6.90
2022-11-05T10:01:23.293Z,6.55
2022-11-05T10:04:27.735Z,6.28
2022-11-05T10:07:32.235Z,6.27
2022-11-05T10:10:41.334Z,5.88
2022-11-05T10:14:06.334Z,6.53
2022-11-05T10:17:22.438Z,6.60
2022-11-05T10:20:36.897Z,6.57
2022-11-05T10:23:39.785Z,6.20
2022-11-05T10:26:45.642Z,6.32
2022-11-05T10:29:48.939Z,7.00
2022-11-05T10:32:57.673Z,7.05
2022-11-05T10:36:05.330Z,6.72
2022-11-05T10:39:17.778Z,6.37
2022-11-05T10:43:07.634Z,6.80
2022-11-05T10:46:38.697Z,6.45
2022-11-05T10:50:01.959Z,6.40
2022-11-05T10:53:21.197Z,5.90
2022-11-05T10:56:38.645Z,6.07
2022-11-05T10:59:41.738Z,6.35
2022-11-05T11:02:51.902Z,6.60
2022-11-05T11:06:03.869Z,6.50
2022-11-05T11:09:19.817Z,7.07
2022-11-05T11:12:26.244Z,6.70
2022-11-05T11:15:32.978Z,6.72
2022-11-05T11:18:40.392Z,6.10
2022-11-05T11:21:43.177Z,6.90
2022-11-05T11:24:53.928Z,6.50
2022-11-05T11:28:02.307Z,6.47
2022-11-05T11:31:09.325Z,6.60
2022-11-05T11:34:14.568Z,6.50
2022-11-05T11:37:30.331Z,6.45
2022-11-05T11:40:35.885Z,6.75
2022-11-05T11:43:41.148Z,6.40
2022-11-05T11:46:48.457Z,6.60
2022-11-05T11:49:53.576Z,6.57
2022-11-05T11:52:56.116Z,6.50
2022-11-05T11:56:16.020Z,6.38
2022-11-05T11:59:46.862Z,6.20
2022-11-05T12:03:15.638Z,6.32
2022-11-05T12:06:36.174Z,6.32
2022-11-05T12:09:39.070Z,6.53
2022-11-05T12:12:50.237Z,6.15
2022-11-05T12:16:25.636Z,6.57
2022-11-05T12:19:57.644Z,6.00
2022-11-05T12:23:21.251Z,6.47
2022-11-05T12:26:39.304Z,6.25
2022-11-05T12:29:48.437Z,6.40
2022-11-05T12:33:02.970Z,6.47
2022-11-05T12:36:26.813Z,6.70
2022-11-05T12:39:29.816Z,6.55
2022-11-05T12:43:09.126Z,5.82
2022-11-05T12:47:02.287Z,6.43
2022-11-05T12:50:10.915Z,6.20
2022-11-05T12:53:19.710Z,6.60
2022-11-05T12:56:37.094Z,6.78
2022-11-05T12:59:47.396Z,5.93
2022-11-05T13:02:56.677Z,6.95
2022-11-05T13:06:07.708Z,6.40
2022-11-05T13:09:25.798Z,6.22
2022-11-05T13:12:31.963Z,6.13
2022-11-05T13:15:52.069Z,6.35
2022-11-05T13:18:58.775Z,6.10
2022-11-05T13:22:13.575Z,6.27
2022-11-05T13:25:25.636Z,6.40
2022-11-05T13:28:38.748Z,6.40
2022-11-05T13:31:49.935Z,6.53
2022-11-05T13:34:56.510Z,6.50
2022-11-05T13:38:24.366Z,5.83
2022-11-05T13:42:07.074Z,6.38
2022-11-05T13:45:19.220Z,6.55
2022-11-05T13:48:29.665Z,6.07
2022-11-05T13:51:54.166Z,6.65
2022-11-05T13:55:22.192Z,6.47
2022-11-05T13:58:56.894Z,6.25
2022-11-05T14:02:17.678Z,6.50
2022-11-05T14:05:25.016Z,6.15
2022-11-05T14:08:29.885Z,6.30
2022-11-05T14:11:42.209Z,5.90
2022-11-05T14:14:48.442Z,6.40
2022-11-05T14:18:01.903Z,6.47
2022-11-05T14:21:20.200Z,6.40
2022-11-05T14:24:23.314Z,6.63
2022-11-05T14:27:29.191Z,5.73
2022-11-05T14:30:46.954Z,6.45
2022-11-05T14:34:21.357Z,6.85
2022-11-05T14:37:27.879Z,6.78
2022-11-05T14:40:38.160Z,6.82
2022-11-05T14:43:51.937Z,6.60
2022-11-05T14:46:58.581Z,6.50
2022-11-05T14:50:08.997Z,6.53
2022-11-05T14:53:34.140Z,6.82
2022-11-05T14:56:53.296Z,6.35
2022-11-05T15:00:01.106Z,6.13
2022-11-05T15:03:37.641Z,6.63
2022-11-05T15:07:03.234Z,6.43
2022-11-05T15:10:10.644Z,6.70
2022-11-05T15:13:30.836Z,7.03
2022-11-05T15:16:40.801Z,6.90
2022-11-05T15:19:46.147Z,6.88
2022-11-05T15:23:05.703Z,7.18
2022-11-05T15:26:34.352Z,6.55
2022-11-05T15:29:38.538Z,6.47
2022-11-05T15:32:42.000Z,6.73
2022-11-05T15:35:45.646Z,7.00
2022-11-05T15:39:15.036Z,7.15
2022-11-05T15:42:14.707Z,7.57
2022-11-05T15:45:20.802Z,7.43
2022-11-05T15:48:25.289Z,7.43
2022-11-05T15:51:30.058Z,7.82
2022-11-05T15:54:33.934Z,8.00
2022-11-05T15:57:40.491Z,7.57
2022-11-05T16:00:50.239Z,7.82
2022-11-05T16:03:57.623Z,7.90
2022-11-05T16:07:12.254Z,7.60
2022-11-05T16:10:29.224Z,7.90
2022-11-05T16:13:38.419Z,7.32
2022-11-05T16:16:44.960Z,7.40
2022-11-05T16:19:49.039Z,7.27
2022-11-05T16:22:55.604Z,8.25
2022-11-05T16:25:59.104Z,7.93
2022-11-05T16:29:25.557Z,7.50
2022-11-05T16:32:31.686Z,7.80
2022-11-05T16:35:40.021Z,7.67
2022-11-05T16:38:45.696Z,8.00
2022-11-05T16:41:49.958Z,7.35
2022-11-05T16:44:55.463Z,7.40
2022-11-05T16:47:59.976Z,8.48
2022-11-05T16:51:03.476Z,7.90
2022-11-05T16:54:07.777Z,8.43
2022-11-05T16:57:31.821Z,8.10
2022-11-05T17:00:36.409Z,7.10
2022-11-05T17:03:40.007Z,7.18
2022-11-05T17:06:46.861Z,7.83
2022-11-05T17:09:51.255Z,8.02
2022-11-05T17:12:54.759Z,7.80
2022-11-05T17:15:58.545Z,7.75
2022-11-05T17:19:02.510Z,8.02
2022-11-05T17:22:06.722Z,7.90
2022-11-05T17:25:10.472Z,8.05
2022-11-05T17:28:22.897Z,7.53
2022-11-05T17:31:28.430Z,7.47
2022-11-05T17:34:32.069Z,8.23
2022-11-05T17:37:36.608Z,8.17
2022-11-05T17:40:41.178Z,7.78
2022-11-05T17:43:44.628Z,7.55
2022-11-05T17:46:50.219Z,8.13
2022-11-05T17:49:54.789Z,7.72
2022-11-05T17:52:58.767Z,8.03
2022-11-05T17:56:03.208Z,7.70
2022-11-05T17:59:07.868Z,7.88
2022-11-05T18:02:14.148Z,8.05
2022-11-05T18:05:18.970Z,7.55
2022-11-05T18:08:22.960Z,7.77
2022-11-05T18:11:26.435Z,7.63
2022-11-05T18:14:31.736Z,7.53
2022-11-05T18:17:38.300Z,8.05
2022-11-05T18:20:43.534Z,8.13
2022-11-05T18:23:47.060Z,8.10
2022-11-05T18:26:51.446Z,7.43
2022-11-05T18:29:55.481Z,8.23
2022-11-05T18:33:00.622Z,7.75
2022-11-05T18:36:05.937Z,7.50
2022-11-05T18:39:09.747Z,8.00
2022-11-05T18:42:14.429Z,7.60
2022-11-05T18:45:18.481Z,8.18
2022-11-05T18:48:22.060Z,7.68
2022-11-05T18:51:27.176Z,8.50
2022-11-05T18:54:32.183Z,7.97
2022-11-05T18:57:36.803Z,7.82
2022-11-05T19:00:40.663Z,8.55
2022-11-05T19:03:44.178Z,7.50
2022-11-05T19:06:49.039Z,8.27
2022-11-05T19:09:53.855Z,8.20
2022-11-05T19:12:57.543Z,7.60
2022-11-05T19:16:01.343Z,7.97
2022-11-05T19:19:06.246Z,7.45
2022-11-05T19:22:10.388Z,8.18
2022-11-05T19:25:14.279Z,8.60
2022-11-05T19:28:22.206Z,8.35
2022-11-05T19:31:30.253Z,8.05
2022-11-05T19:34:36.066Z,8.73
2022-11-05T19:37:39.684Z,8.05
2022-11-05T19:40:43.999Z,8.50
2022-11-05T19:43:48.578Z,8.38
2022-11-05T19:46:51.702Z,8.40
2022-11-05T19:49:55.191Z,8.55
2022-11-05T19:52:59.035Z,7.80
2022-11-05T19:56:14.104Z,8.43
2022-11-05T19:59:19.655Z,7.90
2022-11-05T20:02:24.604Z,8.88
2022-11-05T20:05:27.844Z,8.45
2022-11-05T20:08:31.775Z,8.15
2022-11-05T20:11:40.396Z,8.13
2022-11-05T20:14:44.001Z,8.55
2022-11-05T20:17:52.846Z,8.60
2022-11-05T20:21:09.811Z,8.32
2022-11-05T20:24:22.401Z,7.97
2022-11-05T20:27:29.681Z,8.20
2022-11-05T20:30:33.998Z,8.25
2022-11-05T20:33:38.369Z,8.07
2022-11-05T20:36:42.274Z,8.25
2022-11-05T20:39:46.840Z,8.10
2022-11-05T20:42:50.060Z,7.70
2022-11-05T20:45:53.471Z,8.27
2022-11-05T20:48:57.029Z,8.05
2022-11-05T20:52:00.932Z,7.75
2022-11-05T20:55:09.414Z,8.65
2022-11-05T20:58:15.490Z,8.17
2022-11-05T21:01:20.811Z,8.00
2022-11-05T21:04:24.315Z,8.63
2022-11-05T21:07:28.271Z,7.82
2022-11-05T21:10:32.531Z,8.20
2022-11-05T21:13:36.318Z,8.30
2022-11-05T21:16:39.745Z,7.38
2022-11-05T21:19:43.344Z,8.45
2022-11-05T21:22:47.547Z,8.10
2022-11-05T21:25:50.957Z,7.75
2022-11-05T21:28:54.335Z,8.13
2022-11-05T21:31:57.745Z,8.00
2022-11-05T21:35:01.603Z,8.52
2022-11-05T21:38:05.154Z,7.70
2022-11-05T21:41:10.708Z,8.48
2022-11-05T21:44:13.886Z,7.77
2022-11-05T21:47:17.411Z,7.93
2022-11-05T21:50:22.115Z,8.07
2022-11-05T21:53:43.557Z,8.27
2022-11-05T21:57:10.524Z,8.20
2022-11-05T22:00:14.616Z,8.13
2022-11-05T22:03:17.600Z,7.97
2022-11-05T22:06:20.627Z,8.10
2022-11-05T22:09:24.112Z,7.82
2022-11-05T22:12:27.130Z,7.65
2022-11-05T22:15:29.593Z,7.73
2022-11-05T22:18:32.275Z,8.13
2022-11-05T22:21:35.411Z,8.60
2022-11-05T22:24:39.301Z,7.80
2022-11-05T22:27:43.749Z,8.07
2022-11-05T22:30:46.473Z,8.27
2022-11-05T22:33:49.332Z,8.27
2022-11-05T22:36:52.394Z,7.93
2022-11-05T22:39:54.858Z,7.88
2022-11-05T22:42:57.289Z,8.18
2022-11-05T22:46:09.429Z,7.97
2022-11-05T22:49:12.202Z,7.88
2022-11-05T22:52:14.843Z,8.13
2022-11-05T22:55:17.687Z,7.75
2022-11-05T22:58:20.253Z,8.38
2022-11-05T23:01:23.981Z,8.07
2022-11-05T23:04:26.697Z,8.57
2022-11-05T23:07:47.535Z,8.23
2022-11-05T23:11:28.301Z,8.30
2022-11-05T23:14:31.322Z,8.45
2022-11-05T23:17:52.445Z,8.17
2022-11-05T23:21:13.349Z,7.90
2022-11-05T23:24:18.537Z,8.73
2022-11-05T23:27:20.980Z,7.93
2022-11-05T23:30:27.244Z,7.85
2022-11-05T23:33:34.806Z,7.93
2022-11-05T23:36:56.062Z,7.22
2022-11-05T23:39:58.541Z,8.15
2022-11-05T23:43:19.869Z,7.55
2022-11-05T23:46:41.193Z,8.02
2022-11-05T23:49:43.877Z,8.00
2022-11-05T23:52:46.412Z,8.02
2022-11-05T23:55:49.826Z,7.55
2022-11-05T23:58:52.290Z,7.70
